Time;durP1;ratioP1;P1;durP2;ratioP2;P2;SDS_P1;SDS_P2;PMS_P1;PMS_P2;Temp;Humidity;BMP_temperature;BMP_pressure;BME280_temperature;BME280_humidity;BME280_pressure;Samples;Min_cycle;Max_cycle;Signal;HPM_P1;HPM_P2
2024/01/19 00:01:27;;;;;;;16.17;9.93;;;;;;;-0.34;48.32;100982.41;5027973;28;20053;-74
2024/01/19 00:03:56;;;;;;;16.92;10.13;;;;;;;-0.35;48.19;100981.53;5028800;28;20092;-73
2024/01/19 00:06:24;;;;;;;15.98;11.07;;;;;;;-0.36;48.36;100985.16;5029189;28;20583;-73
2024/01/19 00:08:52;;;;;;;18.02;10.52;;;;;;;-0.36;48.10;100987.84;5029412;28;20539;-74
2024/01/19 00:11:20;;;;;;;16.23;9.85;;;;;;;-0.36;48.26;100992.34;5027658;28;20497;-73
2024/01/19 00:13:50;;;;;;;16.10;10.30;;;;;;;-0.36;48.19;100985.16;5028200;28;20116;-73
2024/01/19 00:16:18;;;;;;;17.88;10.68;;;;;;;-0.38;48.26;100989.72;5034761;22;20069;-76
2024/01/19 00:18:46;;;;;;;18.58;11.27;;;;;;;-0.37;48.29;100985.22;5020092;28;20041;-76
2024/01/19 00:21:14;;;;;;;16.75;10.63;;;;;;;-0.37;48.28;100995.97;5032411;28;20396;-76
2024/01/19 00:23:42;;;;;;;15.95;10.20;;;;;;;-0.37;48.21;101002.22;5022640;28;20044;-76
2024/01/19 00:26:11;;;;;;;19.40;11.60;;;;;;;-0.36;48.36;101008.47;5027474;28;20044;-75
2024/01/19 00:28:39;;;;;;;19.45;11.40;;;;;;;-0.38;48.23;101013.91;5023922;28;20044;-76
2024/01/19 00:31:08;;;;;;;20.60;12.43;;;;;;;-0.37;48.46;101006.72;5023931;28;20045;-76
2024/01/19 00:33:35;;;;;;;18.88;12.23;;;;;;;-0.38;48.21;101016.59;5029615;28;20076;-76
2024/01/19 00:36:03;;;;;;;18.75;11.65;;;;;;;-0.38;48.16;101019.28;5019496;28;20042;-76
2024/01/19 00:38:31;;;;;;;20.65;12.40;;;;;;;-0.39;48.17;101022.94;5008365;28;20049;-75
2024/01/19 00:40:59;;;;;;;17.80;11.77;;;;;;;-0.39;48.14;101028.31;5013419;28;20088;-76
2024/01/19 00:43:27;;;;;;;21.23;12.52;;;;;;;-0.41;48.13;101020.31;5026514;28;20176;-76
2024/01/19 00:45:55;;;;;;;23.25;11.68;;;;;;;-0.41;48.31;101022.13;5023052;28;20128;-76
2024/01/19 00:48:24;;;;;;;21.10;12.55;;;;;;;-0.40;48.36;101042.69;5025367;28;20428;-76
2024/01/19 00:50:53;;;;;;;23.08;12.35;;;;;;;-0.41;48.16;101035.56;5020422;28;20042;-76
2024/01/19 00:53:21;;;;;;;21.48;12.32;;;;;;;-0.41;48.18;101035.56;5025927;28;20128;-76
2024/01/19 00:55:49;;;;;;;22.90;12.43;;;;;;;-0.42;48.38;101048.13;5030116;28;20037;-76
2024/01/19 00:58:17;;;;;;;20.35;12.68;;;;;;;-0.42;48.33;101049.94;5028329;28;20116;-76
2024/01/19 01:00:45;;;;;;;23.90;12.65;;;;;;;-0.41;48.48;101049.88;5029785;28;20045;-76
2024/01/19 01:03:22;;;;;;;20.73;11.93;;;;;;;-0.38;48.31;101046.19;5028784;28;20033;-76
2024/01/19 01:05:56;;;;;;;20.98;11.88;;;;;;;-0.40;48.45;101050.75;5027668;28;20524;-76
2024/01/19 01:08:25;;;;;;;21.67;11.75;;;;;;;-0.41;48.21;101049.88;5025454;28;20120;-76
2024/01/19 01:10:54;;;;;;;22.40;12.35;;;;;;;-0.41;48.37;101043.63;5014355;28;20523;-76
2024/01/19 01:13:22;;;;;;;21.63;12.27;;;;;;;-0.41;48.42;101049.88;5003257;28;20034;-76
2024/01/19 01:15:50;;;;;;;19.17;11.73;;;;;;;-0.40;48.24;101058.81;5025518;28;20163;-76
2024/01/19 01:18:20;;;;;;;21.52;12.50;;;;;;;-0.40;48.20;101064.22;5023947;28;20057;-76
2024/01/19 01:20:51;;;;;;;21.70;12.73;;;;;;;-0.38;48.25;101069.50;5024568;28;20045;-76
2024/01/19 01:23:19;;;;;;;25.90;12.77;;;;;;;-0.40;48.21;101072.28;5021363;28;20076;-76
2024/01/19 01:25:47;;;;;;;26.38;12.77;;;;;;;-0.39;48.25;101073.16;5041382;28;20049;-76
2024/01/19 01:28:15;;;;;;;24.20;13.00;;;;;;;-0.39;48.24;101075.84;5025849;28;20053;-76
2024/01/19 01:30:43;;;;;;;23.77;12.25;;;;;;;-0.41;48.30;101075.91;5024621;28;20041;-76
2024/01/19 01:33:12;;;;;;;27.40;13.13;;;;;;;-0.41;48.57;101079.47;5025023;28;20404;-76
2024/01/19 01:35:40;;;;;;;25.00;12.82;;;;;;;-0.41;48.41;101090.22;5022139;28;20037;-76
2024/01/19 01:38:10;;;;;;;24.00;12.73;;;;;;;-0.40;48.42;101088.41;5020170;28;20065;-76
2024/01/19 01:40:37;;;;;;;26.65;13.35;;;;;;;-0.42;48.38;101101.03;5007353;28;20133;-76
2024/01/19 01:43:06;;;;;;;25.27;12.18;;;;;;;-0.43;48.25;101100.16;5022062;28;20034;-76
2024/01/19 01:45:34;;;;;;;23.25;11.75;;;;;;;-0.43;48.79;101107.34;5025751;28;20208;-76
2024/01/19 01:48:03;;;;;;;21.95;11.70;;;;;;;-0.43;48.34;101110.91;5021598;28;20128;-76
2024/01/19 01:50:31;;;;;;;24.38;11.68;;;;;;;-0.44;48.48;101110.94;5022569;28;20058;-76
2024/01/19 01:52:59;;;;;;;22.15;11.45;;;;;;;-0.44;48.37;101117.22;5024502;28;20044;-76
2024/01/19 01:55:29;;;;;;;25.48;11.90;;;;;;;-0.43;48.47;101120.78;5025140;28;20497;-76
2024/01/19 01:57:57;;;;;;;24.92;11.63;;;;;;;-0.45;48.67;101126.22;5025333;28;20063;-76
2024/01/19 02:00:26;;;;;;;23.13;11.68;;;;;;;-0.44;48.48;101122.59;5011491;28;20533;-76
2024/01/19 02:02:54;;;;;;;19.42;10.10;;;;;;;-0.46;48.42;101119.06;5003261;28;20532;-76
2024/01/19 02:05:22;;;;;;;22.98;11.50;;;;;;;-0.46;48.57;101124.44;5007456;28;20041;-76
2024/01/19 02:07:50;;;;;;;23.60;11.13;;;;;;;-0.46;48.75;101139.69;5025990;28;20049;-76
2024/01/19 02:10:18;;;;;;;21.63;10.27;;;;;;;-0.45;48.50;101144.16;5027020;28;20347;-75
2024/01/19 02:12:48;;;;;;;21.80;10.60;;;;;;;-0.45;48.68;101157.59;5019463;28;20052;-76
2024/01/19 02:15:20;;;;;;;22.17;10.50;;;;;;;-0.45;48.67;101163.84;5025300;28;20349;-76
2024/01/19 02:17:49;;;;;;;22.60;10.40;;;;;;;-0.45;48.80;101168.34;5021954;28;20111;-76
2024/01/19 02:20:18;;;;;;;20.73;9.90;;;;;;;-0.46;48.62;101172.84;5021144;28;20508;-76
2024/01/19 02:22:48;;;;;;;20.30;10.10;;;;;;;-0.46;48.52;101163.91;5021004;28;20033;-74
2024/01/19 02:25:17;;;;;;;20.80;10.05;;;;;;;-0.45;48.53;101169.22;5018545;28;20100;-75
2024/01/19 02:27:46;;;;;;;23.40;10.80;;;;;;;-0.46;48.55;101166.59;5024432;28;20476;-75
2024/01/19 02:30:15;;;;;;;20.08;10.38;;;;;;;-0.46;48.76;101167.47;5022251;28;20041;-75
2024/01/19 02:32:43;;;;;;;20.85;9.95;;;;;;;-0.45;48.74;101173.72;5021845;28;20490;-75
2024/01/19 02:35:11;;;;;;;24.02;10.93;;;;;;;-0.45;48.66;101160.28;5024796;28;20041;-75
2024/01/19 02:37:39;;;;;;;22.63;10.70;;;;;;;-0.45;48.82;101150.41;5022582;28;20076;-75
2024/01/19 02:40:08;;;;;;;23.30;10.57;;;;;;;-0.43;48.62;101156.59;5025278;28;20033;-75
2024/01/19 02:42:38;;;;;;;23.65;10.60;;;;;;;-0.42;48.83;101162.88;5004867;28;20046;-75
2024/01/19 02:45:07;;;;;;;22.13;10.25;;;;;;;-0.42;48.65;101166.44;5008160;28;20132;-75
2024/01/19 02:47:35;;;;;;;21.45;11.05;;;;;;;-0.41;48.69;101178.06;5014632;28;20042;-75
2024/01/19 02:50:03;;;;;;;22.02;10.07;;;;;;;-0.41;48.75;101172.69;5027968;28;20504;-75
2024/01/19 02:52:33;;;;;;;20.40;10.75;;;;;;;-0.41;48.83;101175.38;5023927;28;20069;-75
2024/01/19 02:55:02;;;;;;;23.90;10.70;;;;;;;-0.40;48.75;101177.16;5027192;28;20072;-75
2024/01/19 02:57:30;;;;;;;23.52;11.25;;;;;;;-0.39;48.68;101186.09;5028488;28;20053;-75
2024/01/19 03:00:00;;;;;;;22.63;12.00;;;;;;;-0.38;48.77;101186.00;5018206;28;20045;-75
2024/01/19 03:02:28;;;;;;;23.52;10.75;;;;;;;-0.39;48.75;101178.91;5018457;28;20053;-75
2024/01/19 03:04:56;;;;;;;25.02;11.65;;;;;;;-0.38;48.94;101183.31;5026898;28;20401;-74
2024/01/19 03:07:24;;;;;;;25.35;11.77;;;;;;;-0.37;49.08;101185.06;5027691;28;20045;-74
2024/01/19 03:09:52;;;;;;;23.05;10.68;;;;;;;-0.36;48.90;101181.47;5026913;28;20037;-75
2024/01/19 03:12:20;;;;;;;27.77;12.93;;;;;;;-0.35;48.93;101193.97;5039666;28;20132;-75
2024/01/19 03:14:47;;;;;;;20.20;10.75;;;;;;;-0.34;49.03;101201.09;5028182;28;20592;-75
2024/01/19 03:17:17;;;;;;;26.27;11.82;;;;;;;-0.32;48.82;101199.25;5004486;28;20421;-75
2024/01/19 03:19:45;;;;;;;23.00;11.95;;;;;;;-0.31;49.19;101202.81;5009809;28;20044;-75
2024/01/19 03:22:13;;;;;;;23.77;11.35;;;;;;;-0.30;48.87;101202.72;5017790;28;20060;-75
2024/01/19 03:24:41;;;;;;;25.10;12.02;;;;;;;-0.30;49.11;101207.22;5018661;28;20046;-74
2024/01/19 03:27:08;;;;;;;27.30;12.30;;;;;;;-0.28;48.87;101208.06;5017116;28;20038;-76
2024/01/19 03:29:36;;;;;;;27.33;12.48;;;;;;;-0.28;48.94;101217.00;5015569;28;20042;-75
2024/01/19 03:32:05;;;;;;;26.77;13.02;;;;;;;-0.26;49.27;101219.66;5005615;28;20037;-75
2024/01/19 03:34:34;;;;;;;26.17;12.15;;;;;;;-0.24;49.29;101228.53;5019096;28;20524;-75
2024/01/19 03:37:03;;;;;;;28.08;13.00;;;;;;;-0.25;49.08;101224.97;5019543;28;20049;-75
2024/01/19 03:39:31;;;;;;;28.80;12.75;;;;;;;-0.24;49.05;101226.72;5018878;28;20053;-75
2024/01/19 03:42:00;;;;;;;31.85;13.13;;;;;;;-0.23;49.08;101219.53;5026048;28;20509;-74
2024/01/19 03:44:28;;;;;;;32.00;13.35;;;;;;;-0.22;49.27;101218.59;5025238;28;20049;-75
2024/01/19 03:46:56;;;;;;;27.13;12.30;;;;;;;-0.22;48.96;101214.09;5042819;28;21354;-75
2024/01/19 03:49:24;;;;;;;31.95;13.90;;;;;;;-0.20;49.02;101214.03;5024047;28;20096;-75
2024/01/19 03:52:01;;;;;;;27.40;13.00;;;;;;;-0.19;49.63;101203.22;5021768;28;20042;-75
2024/01/19 03:54:30;;;;;;;25.63;11.88;;;;;;;-0.21;49.29;101213.16;5017942;28;20049;-74
2024/01/19 03:57:00;;;;;;;30.42;13.38;;;;;;;-0.19;49.16;101202.34;5016421;28;20107;-74
2024/01/19 03:59:28;;;;;;;29.30;12.38;;;;;;;-0.19;49.28;101213.97;5020460;28;20398;-75
2024/01/19 04:01:56;;;;;;;28.55;13.68;;;;;;;-0.17;49.23;101213.94;5025767;28;20049;-75
2024/01/19 04:04:25;;;;;;;27.17;12.82;;;;;;;-0.16;49.24;101216.56;5027466;28;20111;-75
2024/01/19 04:06:55;;;;;;;27.95;13.32;;;;;;;-0.16;49.12;101205.81;5025653;28;20065;-75
2024/01/19 04:09:25;;;;;;;28.15;13.13;;;;;;;-0.14;49.33;101205.72;5019991;28;20500;-75
2024/01/19 04:11:53;;;;;;;23.55;11.52;;;;;;;-0.14;49.23;101209.28;5020836;28;20095;-75
2024/01/19 04:14:21;;;;;;;25.92;12.57;;;;;;;-0.14;49.19;101209.28;5027381;28;20045;-75
2024/01/19 04:16:49;;;;;;;26.20;11.75;;;;;;;-0.14;49.56;101209.28;5026226;28;20038;-75
2024/01/19 04:19:17;;;;;;;26.30;11.80;;;;;;;-0.11;49.22;101209.19;5023659;28;20526;-75
2024/01/19 04:21:45;;;;;;;24.95;11.50;;;;;;;-0.10;49.43;101213.63;5029225;28;20474;-75
2024/01/19 04:24:13;;;;;;;24.02;12.02;;;;;;;-0.10;49.30;101213.63;5030181;28;20033;-75
2024/01/19 04:26:42;;;;;;;23.48;11.68;;;;;;;-0.07;49.34;101218.03;5028868;28;20046;-75
2024/01/19 04:29:10;;;;;;;23.35;11.63;;;;;;;-0.08;49.43;101229.72;5024866;28;20045;-75
2024/01/19 04:31:38;;;;;;;24.02;12.40;;;;;;;-0.07;49.51;101215.34;5004053;28;20073;-75
2024/01/19 04:34:06;;;;;;;24.98;11.32;;;;;;;-0.06;49.72;101223.34;5024103;28;20117;-75
2024/01/19 04:36:34;;;;;;;23.08;12.30;;;;;;;-0.05;49.41;101217.03;5024998;28;20053;-75
2024/01/19 04:39:02;;;;;;;23.95;11.45;;;;;;;-0.05;49.49;101219.72;5029101;28;20037;-75
2024/01/19 04:41:30;;;;;;;27.85;13.55;;;;;;;-0.04;49.63;101221.47;5028224;28;20053;-75
2024/01/19 04:44:00;;;;;;;25.60;12.68;;;;;;;-0.02;49.61;101218.72;5023629;28;20037;-75
2024/01/19 04:46:28;;;;;;;25.95;12.68;;;;;;;-0.02;49.61;101218.72;5026911;28;20415;-75
2024/01/19 04:48:55;;;;;;;26.13;12.23;;;;;;;-0.02;49.50;101222.28;5045608;28;20543;-75
2024/01/19 04:51:23;;;;;;;25.48;13.32;;;;;;;-0.02;49.61;101224.97;5008261;28;20121;-75
2024/01/19 04:53:51;;;;;;;27.40;12.75;;;;;;;-0.00;49.63;101240.19;5008117;28;20523;-75
2024/01/19 04:56:19;;;;;;;24.92;11.75;;;;;;;-0.00;49.66;101234.81;5007406;28;20034;-75
2024/01/19 04:58:47;;;;;;;26.65;12.88;;;;;;;0.01;49.59;101234.75;5007543;28;20076;-75
2024/01/19 05:01:17;;;;;;;29.35;12.82;;;;;;;0.02;49.83;101241.91;5028624;28;20156;-75
2024/01/19 05:03:45;;;;;;;25.45;12.35;;;;;;;0.02;49.83;101251.78;5026366;28;20033;-75
2024/01/19 05:06:13;;;;;;;24.67;11.93;;;;;;;0.03;49.62;101256.22;5023781;28;20128;-75
2024/01/19 05:08:41;;;;;;;27.38;13.25;;;;;;;0.03;49.60;101254.41;5009026;28;20092;-75
2024/01/19 05:11:13;;;;;;;25.88;12.45;;;;;;;0.06;49.80;101250.72;5007601;28;20108;-75
2024/01/19 05:13:41;;;;;;;28.27;13.73;;;;;;;0.04;49.73;101257.97;5009016;28;20046;-75
2024/01/19 05:16:10;;;;;;;25.20;12.77;;;;;;;0.05;49.79;101266.00;5005703;28;20085;-75
2024/01/19 05:18:40;;;;;;;23.63;12.05;;;;;;;0.07;49.84;101277.59;5005568;28;20049;-75
2024/01/19 05:21:08;;;;;;;27.42;11.73;;;;;;;0.07;49.87;101277.59;5018208;28;20192;-75
2024/01/19 05:23:36;;;;;;;26.33;12.05;;;;;;;0.09;49.63;101285.59;5022328;28;20053;-75
2024/01/19 05:26:05;;;;;;;26.30;12.48;;;;;;;0.09;50.05;101275.72;5025956;28;20038;-75
2024/01/19 05:28:34;;;;;;;26.83;12.38;;;;;;;0.11;49.75;101281.00;5021403;28;20060;-75
2024/01/19 05:31:02;;;;;;;25.40;12.63;;;;;;;0.11;49.89;101279.19;5027786;28;20092;-74
2024/01/19 05:33:30;;;;;;;23.20;11.90;;;;;;;0.13;49.81;101281.84;5027127;28;20115;-75
2024/01/19 05:36:02;;;;;;;29.40;13.38;;;;;;;0.14;50.01;101287.19;5028170;28;20091;-73
2024/01/19 05:38:30;;;;;;;22.77;12.27;;;;;;;0.15;50.01;101290.75;5032610;28;20046;-74
2024/01/19 05:41:01;;;;;;;23.17;11.38;;;;;;;0.16;49.94;101301.47;5031835;28;20049;-73
2024/01/19 05:43:29;;;;;;;22.35;10.88;;;;;;;0.17;49.91;101297.84;5031307;28;20053;-74
2024/01/19 05:45:57;;;;;;;23.45;11.00;;;;;;;0.18;49.89;101304.97;5031180;28;20107;-74
2024/01/19 05:48:25;;;;;;;20.63;10.55;;;;;;;0.19;49.82;101304.03;5022062;28;20408;-73
2024/01/19 05:50:54;;;;;;;22.25;10.88;;;;;;;0.19;49.88;101306.72;5026305;28;20528;-74
2024/01/19 05:53:23;;;;;;;21.58;10.73;;;;;;;0.21;50.19;101312.03;5012900;28;20042;-73
2024/01/19 05:55:51;;;;;;;21.08;10.52;;;;;;;0.20;49.71;101316.53;5012365;28;20077;-74
2024/01/19 05:58:19;;;;;;;18.98;10.18;;;;;;;0.21;49.84;101312.03;5012960;28;20088;-75
2024/01/19 06:00:48;;;;;;;21.23;10.07;;;;;;;0.21;49.92;101315.63;5018563;28;20069;-75
2024/01/19 06:03:16;;;;;;;19.73;10.55;;;;;;;0.22;50.02;101324.56;5013302;28;20046;-74
2024/01/19 06:05:44;;;;;;;17.33;9.32;;;;;;;0.23;49.91;101320.94;5017799;28;20092;-74
2024/01/19 06:08:12;;;;;;;20.15;10.35;;;;;;;0.22;49.98;101322.75;5024070;28;20041;-75
2024/01/19 06:10:41;;;;;;;17.55;9.27;;;;;;;0.23;50.17;101327.22;5015950;28;20074;-75
2024/01/19 06:13:09;;;;;;;19.48;9.88;;;;;;;0.23;49.98;101324.53;5023070;28;20042;-75
2024/01/19 06:15:37;;;;;;;18.08;8.98;;;;;;;0.24;49.97;101328.97;5025030;28;20588;-75
2024/01/19 06:18:05;;;;;;;15.90;8.52;;;;;;;0.24;49.93;101334.34;5024126;28;20072;-75
2024/01/19 06:20:34;;;;;;;17.60;9.10;;;;;;;0.25;49.86;101340.63;5027624;28;20042;-74
2024/01/19 06:23:02;;;;;;;15.82;8.93;;;;;;;0.24;49.74;101339.75;5024777;28;20543;-75
2024/01/19 06:25:30;;;;;;;17.30;9.23;;;;;;;0.25;49.89;101344.19;5030122;28;20049;-75
2024/01/19 06:27:59;;;;;;;15.98;9.60;;;;;;;0.25;49.93;101344.19;5022407;28;20125;-75
2024/01/19 06:30:27;;;;;;;17.27;9.45;;;;;;;0.23;49.90;101343.38;5020760;28;20074;-75
2024/01/19 06:32:56;;;;;;;16.75;8.30;;;;;;;0.24;49.70;101352.31;5025353;28;20041;-76
2024/01/19 06:35:23;;;;;;;14.82;8.60;;;;;;;0.23;49.94;101356.81;5017807;28;20470;-75
2024/01/19 06:37:51;;;;;;;18.52;9.57;;;;;;;0.22;49.97;101354.19;5026693;28;20057;-75
2024/01/19 06:40:19;;;;;;;20.55;9.68;;;;;;;0.22;49.97;101365.81;5025854;28;20042;-75
2024/01/19 06:42:47;;;;;;;19.00;9.07;;;;;;;0.22;49.81;101362.25;5025165;28;20103;-75
2024/01/19 06:45:17;;;;;;;16.33;9.07;;;;;;;0.22;50.04;101368.53;5027058;28;20039;-74
2024/01/19 06:47:45;;;;;;;16.60;9.27;;;;;;;0.22;49.83;101387.38;5027316;28;20519;-74
2024/01/19 06:50:13;;;;;;;17.35;9.90;;;;;;;0.22;50.02;101383.78;5021203;28;20042;-76
2024/01/19 06:52:41;;;;;;;18.20;9.43;;;;;;;0.22;50.02;101389.16;5023063;28;20436;-77
2024/01/19 06:55:09;;;;;;;23.55;9.60;;;;;;;0.22;49.83;101399.94;5025416;28;20065;-73
2024/01/19 06:57:37;;;;;;;17.63;10.05;;;;;;;0.21;50.17;101393.69;5027560;28;20049;-72
2024/01/19 07:00:06;;;;;;;18.23;10.10;;;;;;;0.22;50.04;101400.81;5024523;28;20125;-72
2024/01/19 07:02:36;;;;;;;15.88;9.40;;;;;;;0.23;50.17;101399.00;5021785;28;20054;-72
2024/01/19 07:05:05;;;;;;;19.88;9.65;;;;;;;0.22;49.96;101399.94;5009663;28;20049;-72
2024/01/19 07:07:33;;;;;;;18.00;10.68;;;;;;;0.23;50.11;101407.09;5025220;28;20073;-71
2024/01/19 07:10:00;;;;;;;20.60;10.07;;;;;;;0.23;49.99;101399.00;5030067;28;20492;-71
2024/01/19 07:12:28;;;;;;;18.75;10.20;;;;;;;0.24;50.22;101411.53;5007609;28;20045;-71
2024/01/19 07:14:57;;;;;;;16.98;9.68;;;;;;;0.23;50.05;101402.59;4998281;28;20094;-71
2024/01/19 07:17:25;;;;;;;17.60;10.13;;;;;;;0.23;50.06;101409.78;4997122;28;20509;-72
2024/01/19 07:19:56;;;;;;;18.92;10.07;;;;;;;0.24;50.13;101420.50;5016201;28;20046;-73
2024/01/19 07:22:24;;;;;;;17.48;10.02;;;;;;;0.23;50.21;101420.53;5018727;28;20048;-73
2024/01/19 07:24:52;;;;;;;18.92;10.10;;;;;;;0.22;49.90;101416.97;5014512;28;20188;-73
2024/01/19 07:27:20;;;;;;;17.17;9.65;;;;;;;0.24;49.96;101422.31;5019049;28;20037;-74
2024/01/19 07:29:48;;;;;;;19.25;9.88;;;;;;;0.22;49.89;101427.75;5022416;28;20544;-74
2024/01/19 07:32:19;;;;;;;16.88;9.25;;;;;;;0.23;49.87;101439.38;5024629;28;20049;-74
2024/01/19 07:34:47;;;;;;;16.98;9.57;;;;;;;0.22;49.99;101441.19;5023794;28;20068;-73
2024/01/19 07:37:15;;;;;;;17.90;9.70;;;;;;;0.23;49.87;101439.38;5025500;28;20041;-74
2024/01/19 07:39:43;;;;;;;18.73;10.90;;;;;;;0.21;49.79;101449.31;5018799;28;20137;-74
2024/01/19 07:42:11;;;;;;;18.33;10.43;;;;;;;0.21;49.81;101454.69;5015293;28;20276;-73
2024/01/19 07:44:39;;;;;;;17.83;11.07;;;;;;;0.21;49.88;101457.41;5023236;28;20156;-73
2024/01/19 07:47:07;;;;;;;16.58;10.10;;;;;;;0.20;49.84;101467.28;5026460;28;20451;-72
2024/01/19 07:49:35;;;;;;;16.30;9.90;;;;;;;0.19;49.94;101470.91;5017939;28;20492;-71
2024/01/19 07:52:03;;;;;;;18.25;10.70;;;;;;;0.18;50.09;101471.88;5026191;28;20049;-75
2024/01/19 07:54:33;;;;;;;17.52;9.88;;;;;;;0.19;49.92;101470.06;5014692;28;20136;-75
2024/01/19 07:57:01;;;;;;;17.02;9.27;;;;;;;0.16;50.11;101472.84;5023765;28;20116;-74
2024/01/19 07:59:28;;;;;;;15.63;8.98;;;;;;;0.17;50.03;101480.88;5024787;28;20045;-74
2024/01/19 08:01:57;;;;;;;17.73;10.35;;;;;;;0.18;49.86;101495.22;5022721;28;20049;-74
2024/01/19 08:04:25;;;;;;;17.05;10.27;;;;;;;0.17;50.03;101494.31;5019460;28;20065;-75
2024/01/19 08:06:52;;;;;;;16.52;10.68;;;;;;;0.18;50.07;101505.97;5019552;28;20038;-74
2024/01/19 08:09:21;;;;;;;17.83;9.73;;;;;;;0.18;49.82;101509.56;5019117;28;20058;-75
2024/01/19 08:11:50;;;;;;;16.23;9.60;;;;;;;0.19;50.00;101511.28;5020327;28;20037;-75
2024/01/19 08:14:18;;;;;;;17.67;9.95;;;;;;;0.19;49.97;101516.66;5022334;28;20045;-74
2024/01/19 08:16:46;;;;;;;18.30;9.82;;;;;;;0.21;49.87;101524.69;5020343;28;20049;-74
2024/01/19 08:19:14;;;;;;;17.33;9.75;;;;;;;0.21;50.04;101519.31;5025465;28;20046;-74
2024/01/19 08:21:43;;;;;;;17.35;10.88;;;;;;;0.21;49.84;101522.88;5023090;28;20065;-74
2024/01/19 08:24:12;;;;;;;18.98;10.18;;;;;;;0.21;50.37;101519.31;5018734;28;20076;-74
2024/01/19 08:26:40;;;;;;;19.85;10.50;;;;;;;0.23;49.99;101517.44;5022290;28;20046;-75
2024/01/19 08:29:09;;;;;;;19.23;10.30;;;;;;;0.23;50.01;101526.41;5016244;28;20068;-75
2024/01/19 08:31:37;;;;;;;16.75;9.95;;;;;;;0.24;49.74;101535.38;5023717;28;20077;-74
2024/01/19 08:34:05;;;;;;;18.98;10.55;;;;;;;0.24;50.06;101535.38;5001877;28;20501;-74
2024/01/19 08:36:33;;;;;;;19.55;10.50;;;;;;;0.24;50.12;101541.63;5009052;28;20038;-74
2024/01/19 08:39:01;;;;;;;19.00;11.25;;;;;;;0.25;50.05;101545.22;5013813;28;20527;-75
2024/01/19 08:41:29;;;;;;;19.58;10.70;;;;;;;0.25;49.81;101559.56;5002239;28;20108;-75
2024/01/19 08:43:56;;;;;;;17.45;10.43;;;;;;;0.25;49.97;101558.66;5005955;28;20042;-74
2024/01/19 08:46:26;;;;;;;17.75;10.50;;;;;;;0.26;49.96;101565.81;4999676;28;20122;-74
2024/01/19 08:48:54;;;;;;;17.52;10.43;;;;;;;0.25;49.89;101570.31;5017030;28;20083;-75
2024/01/19 08:51:22;;;;;;;19.75;9.90;;;;;;;0.25;49.95;101575.69;5004739;28;20129;-75
2024/01/19 08:53:50;;;;;;;19.02;10.10;;;;;;;0.26;49.99;101580.16;5012106;28;20069;-75
2024/01/19 08:56:21;;;;;;;17.35;9.88;;;;;;;0.28;49.93;101580.97;5013726;28;20386;-75
2024/01/19 08:58:49;;;;;;;16.83;10.18;;;;;;;0.27;50.00;101586.44;5009353;28;20514;-74
2024/01/19 09:01:18;;;;;;;20.25;10.88;;;;;;;0.27;49.83;101589.13;5006754;28;20130;-75
2024/01/19 09:03:47;;;;;;;20.55;11.25;;;;;;;0.28;49.91;101586.34;5003999;28;20050;-75
2024/01/19 09:06:15;;;;;;;19.38;11.10;;;;;;;0.28;49.85;101597.13;5014955;28;20115;-75
2024/01/19 09:08:44;;;;;;;20.77;11.43;;;;;;;0.29;49.85;101587.22;5011104;28;20050;-75
2024/01/19 09:11:12;;;;;;;20.45;10.52;;;;;;;0.28;49.93;101597.13;5007189;28;20057;-74
2024/01/19 09:13:40;;;;;;;17.08;10.57;;;;;;;0.29;49.90;101600.69;5006743;28;20493;-75
2024/01/19 09:16:08;;;;;;;20.30;10.95;;;;;;;0.29;49.80;101601.56;5011395;28;20560;-74
2024/01/19 09:18:37;;;;;;;19.05;10.32;;;;;;;0.29;50.02;101600.69;5007157;28;20093;-75
2024/01/19 09:21:07;;;;;;;19.20;10.45;;;;;;;0.29;49.88;101611.47;5010178;28;20053;-72
2024/01/19 09:23:36;;;;;;;17.52;11.07;;;;;;;0.29;49.65;101619.53;5013312;28;20104;-74
2024/01/19 09:26:03;;;;;;;19.02;10.95;;;;;;;0.28;49.89;101613.28;5030520;28;20458;-74
2024/01/19 09:28:31;;;;;;;20.95;11.20;;;;;;;0.29;49.81;101616.84;5031498;28;20060;-72
2024/01/19 09:31:01;;;;;;;18.98;10.43;;;;;;;0.29;49.81;101623.13;5024033;28;20076;-72
2024/01/19 09:33:29;;;;;;;19.42;10.77;;;;;;;0.29;50.04;101631.19;5027860;28;20137;-72
2024/01/19 09:35:57;;;;;;;17.75;10.25;;;;;;;0.30;49.93;101630.25;5026975;28;20096;-73
2024/01/19 09:38:26;;;;;;;18.40;9.98;;;;;;;0.33;49.80;101645.44;5025065;28;20037;-73
2024/01/19 09:41:04;;;;;;;21.48;11.32;;;;;;;0.34;49.96;101648.09;5024555;28;20041;-72
2024/01/19 09:43:34;;;;;;;19.65;10.70;;;;;;;0.33;49.82;101658.91;5029543;28;20042;-73
2024/01/19 09:46:05;;;;;;;21.80;11.55;;;;;;;0.35;49.73;101662.44;5026562;28;20492;-73
2024/01/19 09:48:44;;;;;;;18.10;10.27;;;;;;;0.34;49.93;101669.63;5022793;28;20424;-73
2024/01/19 09:51:13;;;;;;;19.55;10.93;;;;;;;0.33;49.72;101672.38;5027248;28;20072;-72
2024/01/19 09:53:53;;;;;;;18.65;10.52;;;;;;;0.37;49.90;101682.09;5019768;28;20045;-73
2024/01/19 09:56:21;;;;;;;19.00;10.40;;;;;;;0.34;49.80;101683.09;5029987;28;20060;-73
2024/01/19 09:58:51;;;;;;;17.67;10.95;;;;;;;0.36;49.84;101688.41;5027174;28;20048;-73
2024/01/19 10:01:19;;;;;;;19.05;10.73;;;;;;;0.35;49.70;101690.22;5024342;28;20045;-73
2024/01/19 10:03:47;;;;;;;17.77;10.25;;;;;;;0.36;49.57;101691.09;5014825;28;20137;-72
2024/01/19 10:06:16;;;;;;;19.88;11.80;;;;;;;0.35;49.76;101698.28;5027197;28;20061;-73
2024/01/19 10:08:46;;;;;;;20.80;10.02;;;;;;;0.36;49.67;101693.78;5025900;28;20052;-73
2024/01/19 10:11:14;;;;;;;19.13;10.57;;;;;;;0.35;49.80;101708.22;5026424;28;20041;-72
2024/01/19 10:13:42;;;;;;;19.90;10.15;;;;;;;0.34;49.61;101701.94;5019444;28;20133;-73
2024/01/19 10:16:10;;;;;;;18.08;10.35;;;;;;;0.34;50.00;101707.34;5024359;28;20030;-73
2024/01/19 10:18:39;;;;;;;20.33;11.32;;;;;;;0.35;49.73;101710.91;5025993;28;20042;-72
2024/01/19 10:21:07;;;;;;;18.83;11.30;;;;;;;0.35;49.88;101716.28;5022020;28;20042;-73
2024/01/19 10:23:35;;;;;;;22.77;12.00;;;;;;;0.34;49.88;101720.78;5013964;28;20048;-72
2024/01/19 10:26:14;;;;;;;21.92;11.63;;;;;;;0.39;50.17;101728.72;5018254;28;20069;-72
2024/01/19 10:28:43;;;;;;;21.15;10.88;;;;;;;0.36;49.96;101732.38;5026463;28;20145;-73
2024/01/19 10:31:15;;;;;;;21.83;10.88;;;;;;;0.40;50.11;101735.88;5025530;28;20068;-73
2024/01/19 10:33:50;;;;;;;21.45;11.02;;;;;;;0.41;50.27;101736.75;5026018;28;20041;-73
2024/01/19 10:36:19;;;;;;;21.00;11.13;;;;;;;0.39;49.97;101739.47;5024772;28;20144;-72
2024/01/19 10:38:47;;;;;;;20.05;10.88;;;;;;;0.41;50.18;101748.41;5016541;28;20054;-73
2024/01/19 10:41:17;;;;;;;20.33;10.48;;;;;;;0.44;50.24;101742.00;5018768;28;20076;-73
2024/01/19 10:43:45;;;;;;;22.60;11.45;;;;;;;0.45;50.26;101727.63;5026037;28;20075;-72
2024/01/19 10:46:21;;;;;;;20.10;11.07;;;;;;;0.49;50.32;101734.69;5019830;28;20042;-73
2024/01/19 10:48:50;;;;;;;19.73;11.80;;;;;;;0.48;50.13;101738.31;5020994;28;20091;-72
2024/01/19 10:51:20;;;;;;;20.02;11.32;;;;;;;0.49;50.00;101743.66;5026281;28;20445;-72
2024/01/19 10:53:49;;;;;;;20.08;11.10;;;;;;;0.50;50.06;101749.94;5022968;28;20525;-72
2024/01/19 10:56:22;;;;;;;20.52;11.32;;;;;;;0.54;50.25;101752.47;5021994;28;20564;-73
2024/01/19 10:58:50;;;;;;;22.98;11.25;;;;;;;0.51;50.34;101752.56;5025131;28;20505;-74
2024/01/19 11:01:18;;;;;;;22.30;11.45;;;;;;;0.54;50.13;101754.28;5019407;28;20088;-73
2024/01/19 11:03:47;;;;;;;20.38;11.40;;;;;;;0.54;49.89;101765.94;5013136;28;20042;-73
2024/01/19 11:06:17;;;;;;;22.45;11.68;;;;;;;0.55;50.11;101758.72;5020189;28;20045;-73
2024/01/19 11:08:45;;;;;;;21.77;11.13;;;;;;;0.55;50.08;101770.38;5020586;28;20187;-72
2024/01/19 11:11:14;;;;;;;21.63;11.63;;;;;;;0.56;50.07;101772.16;5022356;28;20052;-73
2024/01/19 11:13:47;;;;;;;20.60;10.63;;;;;;;0.57;50.04;101768.53;5021618;28;20033;-72
2024/01/19 11:16:21;;;;;;;21.63;10.77;;;;;;;0.58;49.82;101764.91;5021865;28;20068;-73
2024/01/19 11:18:50;;;;;;;19.67;10.15;;;;;;;0.57;49.91;101762.25;5028791;28;20049;-72
2024/01/19 11:21:18;;;;;;;20.02;10.43;;;;;;;0.57;49.83;101763.16;5017346;28;20038;-72